createdAt,value
2022-12-15T00:05:08.305Z,20.50
2022-12-15T00:11:28.537Z,22.00
2022-12-15T00:17:49.353Z,22.50
2022-12-15T00:24:09.626Z,19.50
2022-12-15T00:30:30.792Z,22.50
2022-12-15T00:36:51.500Z,20.00
2022-12-15T00:42:54.153Z,19.50
2022-12-15T00:48:56.145Z,20.00
2022-12-15T00:55:18.158Z,19.75
2022-12-15T01:01:38.920Z,17.00
2022-12-15T01:07:59.830Z,20.25
2022-12-15T01:14:20.276Z,17.50
2022-12-15T01:20:22.286Z,17.00
2022-12-15T01:26:24.314Z,15.00
2022-12-15T01:32:27.986Z,15.25
2022-12-15T01:38:31.102Z,17.00
2022-12-15T01:44:33.209Z,17.00
2022-12-15T01:50:42.768Z,17.00
2022-12-15T01:56:48.621Z,16.50
2022-12-15T02:02:51.376Z,16.00
2022-12-15T02:08:55.632Z,18.00
2022-12-15T02:15:10.023Z,22.50
2022-12-15T02:21:20.875Z,20.00
2022-12-15T02:27:37.745Z,18.50
2022-12-15T02:33:54.026Z,22.50
2022-12-15T02:39:56.708Z,22.25
2022-12-15T02:46:27.905Z,19.25
2022-12-15T02:52:38.908Z,19.50
2022-12-15T02:58:43.866Z,17.00
2022-12-15T03:04:45.941Z,21.25
2022-12-15T03:10:51.194Z,18.50
2022-12-15T03:16:54.578Z,18.50
2022-12-15T03:22:57.417Z,17.00
2022-12-15T03:28:59.361Z,19.00
2022-12-15T03:35:01.397Z,17.25
2022-12-15T03:41:07.091Z,17.50
2022-12-15T03:47:14.114Z,14.00
2022-12-15T03:53:16.356Z,16.50
2022-12-15T03:59:18.326Z,15.50
2022-12-15T04:05:22.971Z,13.00
2022-12-15T04:11:24.956Z,17.25
2022-12-15T04:17:26.970Z,14.75
2022-12-15T04:23:31.090Z,14.00
2022-12-15T04:29:51.531Z,14.67
2022-12-15T04:36:12.081Z,18.75
2022-12-15T04:42:34.651Z,17.00
2022-12-15T04:48:57.187Z,16.75
2022-12-15T04:55:17.718Z,17.00
2022-12-15T05:08:31.437Z,14.25
2022-12-15T05:14:52.144Z,17.00
2022-12-15T05:21:13.907Z,16.25
2022-12-15T05:27:36.051Z,14.00
2022-12-15T05:33:39.094Z,17.00
2022-12-15T05:39:41.059Z,19.50
2022-12-15T05:45:43.145Z,15.75
2022-12-15T05:51:48.228Z,14.25
2022-12-15T05:57:54.697Z,15.25
2022-12-15T06:03:59.185Z,17.00
2022-12-15T06:10:01.150Z,17.00
2022-12-15T06:16:15.366Z,14.50
2022-12-15T06:22:18.400Z,15.00
2022-12-15T06:28:24.068Z,16.00
2022-12-15T06:34:27.257Z,19.50
2022-12-15T06:40:32.168Z,17.75
2022-12-15T06:46:38.788Z,18.75
2022-12-15T06:52:42.377Z,18.75
2022-12-15T06:58:47.819Z,20.75
2022-12-15T07:04:53.392Z,21.00
2022-12-15T07:10:55.625Z,23.50
2022-12-15T07:16:57.756Z,22.25
2022-12-15T07:23:11.493Z,23.25
2022-12-15T07:29:21.131Z,24.75
2022-12-15T07:35:26.331Z,30.25
2022-12-15T07:41:30.285Z,21.25
2022-12-15T07:47:34.010Z,25.25
2022-12-15T07:53:37.387Z,28.00
2022-12-15T07:59:39.381Z,28.75
2022-12-15T08:05:41.462Z,22.75
2022-12-15T08:11:45.222Z,23.00
2022-12-15T08:17:48.549Z,22.25
2022-12-15T08:23:50.889Z,28.00
2022-12-15T08:29:53.658Z,23.75
2022-12-15T08:36:07.422Z,24.00
2022-12-15T08:42:09.465Z,18.75
2022-12-15T08:48:11.462Z,17.75
2022-12-15T08:54:13.916Z,21.00
2022-12-15T09:00:16.274Z,21.50
2022-12-15T09:06:35.250Z,19.00
2022-12-15T09:12:41.944Z,19.75
2022-12-15T09:18:48.539Z,18.50
2022-12-15T09:24:50.885Z,15.00
2022-12-15T09:30:53.334Z,18.00
2022-12-15T09:36:56.866Z,19.25
2022-12-15T09:43:25.734Z,17.50
2022-12-15T09:49:31.087Z,13.50
2022-12-15T09:55:39.851Z,3.00
2022-12-15T10:02:10.307Z,19.00
2022-12-15T10:08:15.258Z,16.00
2022-12-15T10:14:50.818Z,13.25
2022-12-15T10:20:57.124Z,20.25
2022-12-15T10:27:17.448Z,17.75
2022-12-15T10:33:24.484Z,18.00
2022-12-15T10:39:45.971Z,11.00
2022-12-15T10:46:04.952Z,13.00
2022-12-15T10:52:27.537Z,17.25
2022-12-15T10:58:31.486Z,19.00
2022-12-15T11:04:36.688Z,12.00
2022-12-15T11:11:11.934Z,16.50
2022-12-15T11:17:19.640Z,15.75
2022-12-15T11:23:26.866Z,11.75
2022-12-15T11:29:53.128Z,14.25
2022-12-15T11:36:10.940Z,13.50
2022-12-15T11:42:44.023Z,12.50
2022-12-15T11:49:15.403Z,11.00
2022-12-15T11:55:27.646Z,15.75
2022-12-15T12:01:55.349Z,16.00
2022-12-15T12:08:17.311Z,17.00
2022-12-15T12:14:34.871Z,19.50
2022-12-15T12:20:45.880Z,18.00
2022-12-15T12:26:57.258Z,15.00
2022-12-15T12:33:02.821Z,15.00
2022-12-15T12:39:05.401Z,15.00
2022-12-15T12:45:12.582Z,16.25
2022-12-15T12:51:27.624Z,14.00
2022-12-15T12:57:41.936Z,16.25
2022-12-15T13:03:44.081Z,11.00
2022-12-15T13:10:12.928Z,17.75
2022-12-15T13:16:23.517Z,17.00
2022-12-15T13:22:42.684Z,14.00
2022-12-15T13:28:50.584Z,14.75
2022-12-15T13:34:52.986Z,12.50
2022-12-15T13:40:55.525Z,14.00
2022-12-15T13:47:07.161Z,15.50
2022-12-15T13:53:19.425Z,17.00
2022-12-15T13:59:28.025Z,18.00
2022-12-15T14:05:32.266Z,17.00
2022-12-15T14:18:01.611Z,22.75
2022-12-15T14:24:37.998Z,19.00
2022-12-15T14:30:41.518Z,13.67
2022-12-15T14:36:44.512Z,18.50
2022-12-15T14:42:47.578Z,20.00
2022-12-15T14:49:03.767Z,20.75
2022-12-15T14:55:21.256Z,21.50
2022-12-15T15:01:30.071Z,18.25
2022-12-15T15:07:33.967Z,21.50
2022-12-15T15:13:40.227Z,21.00
2022-12-15T15:20:05.922Z,22.50
2022-12-15T15:26:10.836Z,17.00
2022-12-15T15:32:23.696Z,21.00
2022-12-15T15:38:33.590Z,20.50
2022-12-15T15:44:36.940Z,19.75
2022-12-15T15:50:39.010Z,22.25
2022-12-15T15:56:41.734Z,25.00
2022-12-15T16:02:44.257Z,21.50
2022-12-15T16:08:51.242Z,23.25
2022-12-15T16:14:54.820Z,33.00
2022-12-15T16:20:58.232Z,31.25
2022-12-15T16:27:00.366Z,35.25
2022-12-15T16:33:05.094Z,40.25
2022-12-15T16:39:24.987Z,26.00
2022-12-15T16:45:29.658Z,25.25
2022-12-15T16:51:40.554Z,26.25
2022-12-15T16:57:43.395Z,26.75
2022-12-15T17:03:45.759Z,23.25
2022-12-15T17:09:49.827Z,24.00
2022-12-15T17:15:53.303Z,30.00
2022-12-15T17:21:57.063Z,28.25
2022-12-15T17:28:01.449Z,29.00
2022-12-15T17:34:33.520Z,26.50
2022-12-15T17:40:37.143Z,26.00
2022-12-15T17:46:40.433Z,32.75
2022-12-15T17:52:48.107Z,28.25
2022-12-15T17:58:50.363Z,26.75
2022-12-15T18:04:53.989Z,30.50
2022-12-15T18:10:58.142Z,28.75
2022-12-15T18:17:00.170Z,30.00
2022-12-15T18:23:12.405Z,28.25
2022-12-15T18:29:18.274Z,31.00
2022-12-15T18:35:34.521Z,31.50
2022-12-15T18:41:36.503Z,31.25
2022-12-15T18:47:38.558Z,30.00
2022-12-15T18:53:41.274Z,25.25
2022-12-15T18:59:45.624Z,33.50
2022-12-15T19:05:49.094Z,27.75
2022-12-15T19:12:10.132Z,24.50
2022-12-15T19:18:35.679Z,27.50
2022-12-15T19:24:55.855Z,29.25
2022-12-15T19:30:58.216Z,29.25
2022-12-15T19:37:02.716Z,24.25
2022-12-15T19:43:05.549Z,10.50
2022-12-15T19:49:09.635Z,28.50
2022-12-15T19:55:16.512Z,29.00
2022-12-15T20:01:21.346Z,28.25
2022-12-15T20:07:33.449Z,25.75
2022-12-15T20:13:36.467Z,16.50
2022-12-15T20:19:39.098Z,25.50
2022-12-15T20:25:42.092Z,30.00
2022-12-15T20:31:44.522Z,31.00
2022-12-15T20:37:47.779Z,28.50
2022-12-15T20:43:54.291Z,27.75
2022-12-15T20:49:57.703Z,27.25
2022-12-15T20:55:59.686Z,20.00
2022-12-15T21:02:01.876Z,23.00
2022-12-15T21:08:15.799Z,21.25
2022-12-15T21:14:23.710Z,22.75
2022-12-15T21:20:26.105Z,26.00
2022-12-15T21:26:29.239Z,24.25
2022-12-15T21:32:31.216Z,25.75
2022-12-15T21:38:40.330Z,26.00
2022-12-15T21:44:43.074Z,26.50
2022-12-15T21:50:50.337Z,23.00
2022-12-15T21:56:54.129Z,25.00
2022-12-15T22:02:57.217Z,24.75
2022-12-15T22:08:59.161Z,24.25
2022-12-15T22:15:02.325Z,30.00
2022-12-15T22:21:05.214Z,30.25
2022-12-15T22:27:19.880Z,22.00
2022-12-15T22:33:24.242Z,27.25
2022-12-15T22:39:26.647Z,29.25
2022-12-15T22:45:28.657Z,31.75
2022-12-15T22:51:31.048Z,28.00
2022-12-15T22:57:35.031Z,31.75
2022-12-15T23:03:38.766Z,32.25
2022-12-15T23:09:40.698Z,32.00
2022-12-15T23:16:02.782Z,31.00
2022-12-15T23:22:05.173Z,30.25
2022-12-15T23:28:07.401Z,32.25
2022-12-15T23:34:10.786Z,27.50
2022-12-15T23:40:13.561Z,30.33
2022-12-15T23:46:15.541Z,30.00
2022-12-15T23:52:18.595Z,31.00
2022-12-15T23:58:21.521Z,30.25
